| time (UTC) | temp F | wind direction | speed MPH | gust MPH | rain 1hr in | rain 24hr in | rain mn in | humidity % | barometer mb |
| 20260510094331 | 49 | 132 | 1.0 | 3.0 | 0.00 | 0.23 | 0.00 | 95 | 1011.8 |
| 20260510093347 | 49 | 130 | 1.0 | 2.0 | 0.00 | 0.23 | 0.00 | 95 | 1011.6 |
| 20260510092312 | 49 | 124 | 1.0 | 2.0 | 0.00 | 0.23 | 0.00 | 95 | 1011.6 |
| 20260510091317 | 48 | 124 | 2.0 | 3.0 | 0.00 | 0.23 | 0.00 | 95 | 1011.7 |
| 20260510090323 | 48 | 131 | 2.0 | 3.0 | 0.00 | 0.23 | 0.00 | 95 | 1011.7 |
| 20260510085328 | 48 | 120 | 2.0 | 4.0 | 0.00 | 0.23 | 0.00 | 95 | 1012.0 |
| 20260510084333 | 48 | 132 | 2.0 | 4.0 | 0.00 | 0.23 | 0.00 | 95 | 1012.1 |
| 20260510083321 | 49 | 110 | 1.0 | 2.0 | 0.00 | 0.23 | 0.00 | 95 | 1012.2 |
| 20260510082312 | 48 | 327 | 0.0 | 1.0 | 0.00 | 0.23 | 0.00 | 95 | 1012.3 |
| 20260510081344 | 48 | 327 | 0.0 | 1.0 | 0.00 | 0.23 | 0.00 | 95 | 1012.4 |
| 20260510080315 | 48 | 327 | 0.0 | 0.0 | 0.00 | 0.23 | 0.00 | 95 | 1012.5 |
| 20260510075332 | 48 | 327 | 0.0 | 2.0 | 0.00 | 0.23 | 0.00 | 95 | 1012.5 |
| 20260510074324 | 48 | 288 | 0.0 | 3.0 | 0.00 | 0.23 | 0.00 | 95 | 1012.4 |
| 20260510073312 | 48 | 309 | 2.0 | 4.0 | 0.00 | 0.23 | 0.00 | 95 | 1012.4 |
| 20260510072320 | 48 | 297 | 2.0 | 6.0 | 0.00 | 0.23 | 0.00 | 95 | 1012.5 |
| 20260510071334 | 47 | 311 | 5.0 | 6.0 | 0.00 | 0.23 | 0.00 | 94 | 1012.3 |
| 20260510070329 | 47 | 47 | 0.0 | 0.0 | 0.00 | 0.23 | 0.00 | 95 | 1011.7 |
| 20260510065314 | 48 | 47 | 0.0 | 0.0 | 0.00 | 0.23 | 0.00 | 95 | 1011.8 |
| 20260510064328 | 47 | 47 | 0.0 | 0.0 | 0.00 | 0.23 | 0.00 | 95 | 1011.9 |
| 20260510063334 | 47 | 47 | 0.0 | 0.0 | 0.00 | 0.23 | 0.00 | 95 | 1012.0 |
| 20260510062324 | 47 | 47 | 0.0 | 0.0 | 0.00 | 0.23 | 0.00 | 94 | 1012.2 |
| 20260510061339 | 47 | 47 | 0.0 | 0.0 | 0.00 | 0.23 | 0.00 | 94 | 1012.0 |
| 20260510060325 | 47 | 47 | 0.0 | 0.0 | 0.00 | 0.23 | 0.00 | 94 | 1012.1 |
| 20260510055328 | 47 | 138 | 0.0 | 0.0 | 0.00 | 0.23 | 0.00 | 94 | 1012.2 |
| 20260510054340 | 48 | 138 | 0.0 | 2.0 | 0.00 | 0.23 | 0.00 | 94 | 1011.9 |
| 20260510053321 | 48 | 137 | 0.0 | 3.0 | 0.00 | 0.23 | 0.00 | 94 | 1011.7 |
| 20260510052327 | 49 | 121 | 1.0 | 3.0 | 0.00 | 0.23 | 0.00 | 94 | 1011.6 |
| 20260510051331 | 49 | 131 | 1.0 | 4.0 | 0.00 | 0.23 | 0.00 | 94 | 1011.6 |
| 20260510050345 | 49 | 130 | 2.0 | 4.0 | 0.00 | 0.23 | 0.00 | 94 | 1011.6 |
| 20260510045318 | 49 | 137 | 1.0 | 4.0 | 0.00 | 0.23 | 0.00 | 94 | 1011.8 |
| 20260510044324 | 49 | 132 | 2.0 | 3.0 | 0.00 | 0.23 | 0.00 | 94 | 1011.8 |
| 20260510043329 | 49 | 124 | 1.0 | 4.0 | 0.00 | 0.23 | 0.00 | 94 | 1011.6 |
| 20260510042316 | 49 | 147 | 2.0 | 7.0 | 0.00 | 0.23 | 0.00 | 94 | 1011.7 |
| 20260510041325 | 49 | 114 | 3.0 | 7.0 | 0.00 | 0.23 | 0.00 | 94 | 1011.8 |
| 20260510040311 | 49 | 124 | 2.0 | 7.0 | 0.00 | 0.23 | 0.23 | 94 | 1011.8 |
| 20260510035338 | 49 | 137 | 1.0 | 6.0 | 0.00 | 0.23 | 0.23 | 94 | 1011.8 |
| 20260510034326 | 49 | 146 | 2.0 | 6.0 | 0.00 | 0.23 | 0.23 | 93 | 1011.5 |
| 20260510033314 | 49 | 128 | 2.0 | 3.0 | 0.00 | 0.23 | 0.23 | 93 | 1011.5 |
| 20260510032330 | 49 | 137 | 1.0 | 3.0 | 0.00 | 0.23 | 0.23 | 93 | 1011.4 |
| 20260510031317 | 50 | 126 | 1.0 | 4.0 | 0.00 | 0.23 | 0.23 | 93 | 1011.3 |
| 20260510030352 | 50 | 122 | 3.0 | 6.0 | 0.00 | 0.23 | 0.23 | 93 | 1011.3 |
| 20260510025317 | 50 | 125 | 2.0 | 3.0 | 0.00 | 0.23 | 0.23 | 93 | 1011.4 |
| 20260510024326 | 50 | 128 | 1.0 | 4.0 | 0.00 | 0.23 | 0.23 | 93 | 1011.5 |
| 20260510023313 | 50 | 122 | 2.0 | 3.0 | 0.00 | 0.23 | 0.23 | 93 | 1011.5 |
| 20260510022346 | 51 | 130 | 1.0 | 4.0 | 0.00 | 0.23 | 0.23 | 93 | 1011.6 |
| 20260510021332 | 51 | 118 | 3.0 | 7.0 | 0.00 | 0.23 | 0.23 | 93 | 1011.4 |
| 20260510020322 | 51 | 121 | 2.0 | 6.0 | 0.00 | 0.23 | 0.23 | 93 | 1011.4 |
| 20260510015350 | 51 | 148 | 2.0 | 6.0 | 0.00 | 0.23 | 0.23 | 93 | 1011.3 |
| 20260510014338 | 51 | 134 | 2.0 | 4.0 | 0.00 | 0.23 | 0.23 | 93 | 1011.3 |
| 20260510013324 | 51 | 124 | 3.0 | 5.0 | 0.00 | 0.23 | 0.23 | 93 | 1011.4 |
| 20260510012337 | 51 | 126 | 0.0 | 3.0 | 0.00 | 0.23 | 0.23 | 93 | 1011.4 |
| 20260510011332 | 52 | 128 | 1.0 | 3.0 | 0.00 | 0.23 | 0.23 | 93 | 1011.4 |
| 20260510010345 | 52 | 131 | 1.0 | 3.0 | 0.00 | 0.23 | 0.23 | 93 | 1011.1 |
| 20260510005351 | 52 | 137 | 2.0 | 4.0 | 0.00 | 0.23 | 0.23 | 93 | 1011.0 |
| 20260510004316 | 52 | 124 | 1.0 | 8.0 | 0.00 | 0.23 | 0.23 | 93 | 1010.9 |
| 20260510003352 | 52 | 147 | 2.0 | 5.0 | 0.00 | 0.23 | 0.23 | 93 | 1010.8 |
| 20260510002318 | 52 | 168 | 2.0 | 6.0 | 0.00 | 0.23 | 0.23 | 93 | 1010.8 |
| 20260510001324 | 52 | 137 | 1.0 | 5.0 | 0.00 | 0.23 | 0.23 | 93 | 1010.9 |
| 20260510000312 | 52 | 124 | 2.0 | 3.0 | 0.00 | 0.23 | 0.23 | 92 | 1010.7 |
| 20260509235336 | 53 | 130 | 2.0 | 6.0 | 0.00 | 0.23 | 0.23 | 92 | 1010.6 |
| 20260509234322 | 53 | 140 | 3.0 | 9.0 | 0.00 | 0.23 | 0.23 | 92 | 1010.6 |
| 20260509233337 | 53 | 124 | 2.0 | 3.0 | 0.00 | 0.23 | 0.23 | 92 | 1010.4 |
| 20260509232325 | 54 | 172 | 2.0 | 6.0 | 0.00 | 0.23 | 0.23 | 92 | 1010.3 |
| 20260509231312 | 54 | 130 | 2.0 | 4.0 | 0.00 | 0.23 | 0.23 | 92 | 1010.4 |
| 20260509230327 | 54 | 124 | 1.0 | 3.0 | 0.00 | 0.23 | 0.23 | 92 | 1010.3 |
| 20260509225312 | 54 | 132 | 2.0 | 6.0 | 0.00 | 0.23 | 0.23 | 91 | 1010.3 |
| 20260509224326 | 54 | 151 | 1.0 | 3.0 | 0.00 | 0.23 | 0.23 | 92 | 1010.3 |
| 20260509223313 | 54 | 161 | 3.0 | 7.0 | 0.00 | 0.23 | 0.23 | 92 | 1010.4 |
| 20260509222318 | 54 | 132 | 1.0 | 3.0 | 0.00 | 0.23 | 0.23 | 92 | 1010.6 |
| 20260509221325 | 53 | 135 | 3.0 | 4.0 | 0.00 | 0.23 | 0.23 | 92 | 1010.4 |
| 20260509220316 | 53 | 155 | 1.0 | 4.0 | 0.00 | 0.23 | 0.23 | 93 | 1010.6 |
| 20260509215330 | 53 | 201 | 0.0 | 2.0 | 0.00 | 0.23 | 0.23 | 93 | 1010.6 |
| 20260509214323 | 53 | 201 | 0.0 | 3.0 | 0.00 | 0.23 | 0.23 | 93 | 1010.8 |
| 20260509213328 | 53 | 203 | 0.0 | 2.0 | 0.00 | 0.23 | 0.23 | 93 | 1010.8 |
| 20260509212315 | 53 | 212 | 0.0 | 2.0 | 0.01 | 0.23 | 0.23 | 93 | 1010.8 |
| 20260509211328 | 52 | 212 | 0.0 | 2.0 | 0.02 | 0.23 | 0.23 | 93 | 1010.8 |
| 20260509210315 | 52 | 212 | 0.0 | 2.0 | 0.03 | 0.23 | 0.23 | 93 | 1010.8 |
| 20260509205340 | 52 | 211 | 0.0 | 2.0 | 0.04 | 0.23 | 0.23 | 93 | 1010.8 |
| 20260509204346 | 52 | 202 | 0.0 | 2.0 | 0.05 | 0.23 | 0.23 | 93 | 1010.9 |
| 20260509203358 | 52 | 335 | 0.0 | 3.0 | 0.06 | 0.23 | 0.23 | 93 | 1010.9 |
| 20260509202323 | 52 | 302 | 1.0 | 2.0 | 0.05 | 0.22 | 0.22 | 93 | 1010.9 |
| 20260509201355 | 52 | 310 | 2.0 | 3.0 | 0.06 | 0.21 | 0.21 | 93 | 1011.1 |
| 20260509200322 | 52 | 267 | 1.0 | 3.0 | 0.06 | 0.20 | 0.20 | 93 | 1011.6 |
| 20260509195337 | 52 | 251 | 2.0 | 7.0 | 0.06 | 0.19 | 0.19 | 93 | 1011.7 |
| 20260509194323 | 52 | 293 | 2.0 | 4.0 | 0.06 | 0.18 | 0.18 | 93 | 1011.7 |
| 20260509193337 | 52 | 328 | 1.0 | 4.0 | 0.06 | 0.17 | 0.17 | 93 | 1011.9 |
| 20260509192326 | 52 | 254 | 1.0 | 5.0 | 0.07 | 0.17 | 0.17 | 93 | 1012.0 |
| 20260509191339 | 53 | 311 | 2.0 | 4.0 | 0.08 | 0.15 | 0.15 | 92 | 1012.0 |
| 20260509190332 | 53 | 289 | 0.0 | 0.0 | 0.10 | 0.15 | 0.14 | 92 | 1012.1 |
| 20260509185338 | 53 | 289 | 0.0 | 3.0 | 0.10 | 0.14 | 0.13 | 92 | 1012.1 |
| 20260509184326 | 53 | 295 | 1.0 | 3.0 | 0.10 | 0.13 | 0.12 | 92 | 1012.1 |
| 20260509183359 | 53 | 262 | 0.0 | 1.0 | 0.09 | 0.12 | 0.11 | 92 | 1012.0 |
| 20260509182325 | 53 | 261 | 1.0 | 2.0 | 0.08 | 0.11 | 0.10 | 91 | 1012.3 |
| 20260509181330 | 53 | 181 | 2.0 | 5.0 | 0.05 | 0.08 | 0.07 | 90 | 1012.7 |
| 20260509180314 | 53 | 209 | 1.0 | 7.0 | 0.02 | 0.05 | 0.04 | 89 | 1012.7 |
| 20260509175319 | 54 | 165 | 2.0 | 6.0 | 0.01 | 0.04 | 0.03 | 88 | 1012.5 |
| 20260509174327 | 54 | 195 | 4.0 | 5.0 | 0.00 | 0.03 | 0.02 | 88 | 1012.4 |
| 20260509173317 | 54 | 310 | 1.0 | 7.0 | 0.00 | 0.03 | 0.02 | 88 | 1012.3 |
| 20260509172325 | 54 | 270 | 1.0 | 7.0 | 0.00 | 0.03 | 0.02 | 86 | 1012.3 |
| 20260509171330 | 55 | 164 | 2.0 | 7.0 | 0.00 | 0.03 | 0.02 | 87 | 1012.2 |
| 20260509170316 | 55 | 275 | 2.0 | 6.0 | 0.00 | 0.03 | 0.02 | 87 | 1012.1 |
| 20260509165320 | 55 | 246 | 2.0 | 4.0 | 0.00 | 0.03 | 0.02 | 86 | 1012.2 |
| 20260509164326 | 55 | 224 | 1.0 | 5.0 | 0.00 | 0.03 | 0.02 | 87 | 1012.1 |
| 20260509163315 | 55 | 197 | 3.0 | 4.0 | 0.01 | 0.03 | 0.02 | 88 | 1012.1 |
| 20260509162322 | 55 | 182 | 1.0 | 3.0 | 0.01 | 0.03 | 0.02 | 90 | 1012.0 |
| 20260509161327 | 54 | 175 | 2.0 | 5.0 | 0.01 | 0.03 | 0.02 | 89 | 1012.2 |
| 20260509160334 | 54 | 191 | 3.0 | 4.0 | 0.01 | 0.03 | 0.02 | 89 | 1012.5 |
| 20260509155340 | 55 | 190 | 2.0 | 3.0 | 0.01 | 0.03 | 0.02 | 89 | 1012.5 |
| 20260509154325 | 55 | 212 | 1.0 | 3.0 | 0.01 | 0.03 | 0.02 | 90 | 1012.4 |
| 20260509153332 | 54 | 169 | 1.0 | 3.0 | 0.00 | 0.02 | 0.01 | 89 | 1012.4 |
| 20260509152320 | 54 | 158 | 1.0 | 7.0 | 0.00 | 0.02 | 0.01 | 88 | 1012.7 |
| 20260509151335 | 54 | 205 | 2.0 | 7.0 | 0.00 | 0.02 | 0.01 | 87 | 1012.8 |
| 20260509150348 | 55 | 164 | 1.0 | 3.0 | 0.00 | 0.02 | 0.01 | 86 | 1012.9 |
| 20260509145334 | 55 | 197 | 3.0 | 5.0 | 0.00 | 0.02 | 0.01 | 84 | 1012.8 |
| 20260509144320 | 55 | 150 | 2.0 | 4.0 | 0.00 | 0.02 | 0.01 | 84 | 1012.7 |
| 20260509143327 | 55 | 197 | 1.0 | 3.0 | 0.00 | 0.02 | 0.01 | 85 | 1012.4 |
| 20260509142340 | 54 | 141 | 2.0 | 3.0 | 0.00 | 0.02 | 0.01 | 87 | 1012.3 |
| 20260509141345 | 53 | 126 | 1.0 | 2.0 | 0.00 | 0.02 | 0.01 | 88 | 1012.1 |
| 20260509140327 | 52 | 125 | 0.0 | 2.0 | 0.00 | 0.02 | 0.01 | 88 | 1012.3 |
| 20260509135330 | 52 | 121 | 1.0 | 4.0 | 0.00 | 0.02 | 0.01 | 87 | 1012.3 |
| 20260509134315 | 52 | 155 | 1.0 | 3.0 | 0.00 | 0.02 | 0.01 | 88 | 1012.5 |
| 20260509133321 | 51 | 125 | 0.0 | 4.0 | 0.00 | 0.02 | 0.01 | 88 | 1012.5 |
| 20260509132329 | 51 | 130 | 0.0 | 3.0 | 0.00 | 0.02 | 0.01 | 88 | 1012.4 |
| 20260509131316 | 51 | 168 | 1.0 | 3.0 | 0.00 | 0.02 | 0.01 | 88 | 1012.6 |
| 20260509130323 | 51 | 149 | 1.0 | 6.0 | 0.00 | 0.02 | 0.01 | 88 | 1012.7 |
| 20260509125328 | 50 | 147 | 1.0 | 3.0 | 0.00 | 0.02 | 0.01 | 88 | 1012.8 |
| 20260509124315 | 50 | 130 | 2.0 | 4.0 | 0.00 | 0.02 | 0.01 | 88 | 1012.6 |
| 20260509123331 | 50 | 124 | 2.0 | 6.0 | 0.00 | 0.02 | 0.01 | 89 | 1012.7 |
| 20260509122314 | 50 | 123 | 2.0 | 7.0 | 0.01 | 0.02 | 0.01 | 90 | 1012.9 |
| 20260509121328 | 49 | 149 | 2.0 | 9.0 | 0.01 | 0.02 | 0.01 | 91 | 1012.7 |
| 20260509120317 | 49 | 137 | 1.0 | 3.0 | 0.01 | 0.02 | 0.01 | 92 | 1012.5 |
| 20260509115323 | 49 | 147 | 2.0 | 2.0 | 0.01 | 0.02 | 0.01 | 92 | 1012.4 |
| 20260509114326 | 48 | 143 | 0.0 | 1.0 | 0.01 | 0.02 | 0.01 | 93 | 1012.1 |
| 20260509113313 | 48 | 134 | 1.0 | 3.0 | 0.01 | 0.02 | 0.01 | 93 | 1012.4 |
| 20260509112347 | 47 | 141 | 1.0 | 2.0 | 0.00 | 0.01 | 0.00 | 93 | 1012.5 |
| 20260509111335 | 47 | 127 | 0.0 | 2.0 | 0.00 | 0.01 | 0.00 | 93 | 1012.7 |
| 20260509110322 | 47 | 126 | 1.0 | 2.0 | 0.00 | 0.01 | 0.00 | 93 | 1013.0 |
| 20260509105328 | 47 | 126 | 0.0 | 3.0 | 0.00 | 0.01 | 0.00 | 93 | 1012.9 |
| 20260509104314 | 47 | 124 | 2.0 | 3.0 | 0.00 | 0.01 | 0.00 | 93 | 1012.6 |
| 20260509103329 | 47 | 124 | 0.0 | 1.0 | 0.00 | 0.01 | 0.00 | 93 | 1012.7 |
| 20260509102316 | 47 | 124 | 1.0 | 2.0 | 0.00 | 0.01 | 0.00 | 93 | 1012.4 |
| 20260509101322 | 46 | 124 | 0.0 | 1.0 | 0.00 | 0.01 | 0.00 | 93 | 1012.5 |
| 20260509100327 | 47 | 124 | 0.0 | 0.0 | 0.00 | 0.01 | 0.00 | 93 | 1012.4 |
| 20260509095330 | 47 | 124 | 0.0 | 0.0 | 0.00 | 0.01 | 0.00 | 92 | 1012.5 |